createdAt,value
2023-03-12T00:00:11.930Z,2.44
2023-03-12T00:03:09.599Z,2.41
2023-03-12T00:06:10.870Z,2.40
2023-03-12T00:09:10.661Z,2.39
2023-03-12T00:12:08.407Z,2.38
2023-03-12T00:15:05.867Z,2.35
2023-03-12T00:18:03.530Z,2.32
2023-03-12T00:21:00.952Z,2.31
2023-03-12T00:23:58.684Z,2.28
2023-03-12T00:26:56.157Z,2.27
2023-03-12T00:29:53.781Z,2.26
2023-03-12T00:32:51.272Z,2.24
2023-03-12T00:35:49.093Z,2.22
2023-03-12T00:38:46.758Z,2.20
2023-03-12T00:41:44.279Z,2.21
2023-03-12T00:44:41.958Z,2.21
2023-03-12T00:47:39.426Z,2.20
2023-03-12T00:50:37.229Z,2.20
2023-03-12T00:53:34.724Z,2.19
2023-03-12T00:56:32.542Z,2.18
2023-03-12T00:59:30.187Z,2.18
2023-03-12T01:02:27.674Z,2.16
2023-03-12T01:05:25.446Z,2.15
2023-03-12T01:08:23.023Z,2.14
2023-03-12T01:11:20.866Z,2.12
2023-03-12T01:14:18.945Z,2.11
2023-03-12T01:17:16.812Z,2.10
2023-03-12T01:20:14.686Z,2.08
2023-03-12T01:23:12.248Z,2.04
2023-03-12T01:26:10.014Z,2.01
2023-03-12T01:29:07.574Z,2.01
2023-03-12T01:32:05.348Z,1.99
2023-03-12T01:35:02.809Z,1.96
2023-03-12T01:38:00.570Z,1.93
2023-03-12T01:40:58.129Z,1.90
2023-03-12T01:43:55.901Z,1.89
2023-03-12T01:46:53.662Z,1.90
2023-03-12T01:49:51.128Z,1.92
2023-03-12T01:52:48.891Z,1.93
2023-03-12T01:55:46.457Z,1.95
2023-03-12T01:58:44.324Z,1.96
2023-03-12T02:01:42.052Z,1.94
2023-03-12T02:04:39.942Z,1.93
2023-03-12T02:07:37.624Z,1.91
2023-03-12T02:10:35.050Z,1.90
2023-03-12T02:13:32.680Z,1.88
2023-03-12T02:16:30.160Z,1.87
2023-03-12T02:19:27.953Z,1.85
2023-03-12T02:22:25.842Z,1.85
2023-03-12T02:25:23.307Z,1.83
2023-03-12T02:28:23.015Z,1.84
2023-03-12T02:31:20.520Z,1.82
2023-03-12T02:34:18.367Z,1.81
2023-03-12T02:37:16.223Z,1.80
2023-03-12T02:40:13.689Z,1.79
2023-03-12T02:43:11.546Z,1.80
2023-03-12T02:46:09.156Z,1.79
2023-03-12T02:49:06.981Z,1.78
2023-03-12T02:52:04.539Z,1.78
2023-03-12T02:55:02.308Z,1.79
2023-03-12T02:58:00.091Z,1.78
2023-03-12T03:00:57.664Z,1.77
2023-03-12T03:03:55.983Z,1.77
2023-03-12T03:06:53.683Z,1.74
2023-03-12T03:09:51.452Z,1.71
2023-03-12T03:12:49.219Z,1.67
2023-03-12T03:15:46.724Z,1.63
2023-03-12T03:18:44.658Z,1.58
2023-03-12T03:21:42.215Z,1.52
2023-03-12T03:24:39.991Z,1.48
2023-03-12T03:27:37.442Z,1.42
2023-03-12T03:30:36.129Z,1.38
2023-03-12T03:33:33.591Z,1.34
2023-03-12T03:36:31.474Z,1.30
2023-03-12T03:39:29.234Z,1.25
2023-03-12T03:42:26.688Z,1.23
2023-03-12T03:45:24.557Z,1.21
2023-03-12T03:48:22.017Z,1.20
2023-03-12T03:51:20.396Z,1.17
2023-03-12T03:54:17.958Z,1.14
2023-03-12T03:57:15.726Z,1.11
2023-03-12T04:00:15.445Z,1.08
2023-03-12T04:03:13.486Z,1.06
2023-03-12T04:06:12.611Z,1.05
2023-03-12T04:09:10.173Z,1.04
2023-03-12T04:12:08.042Z,1.02
2023-03-12T04:15:05.548Z,0.99
2023-03-12T04:18:03.181Z,0.95
2023-03-12T04:21:00.638Z,0.92
2023-03-12T04:23:58.502Z,0.89
2023-03-12T04:26:55.956Z,0.82
2023-03-12T04:29:53.825Z,0.77
2023-03-12T04:32:51.373Z,0.72
2023-03-12T04:35:49.380Z,0.68
2023-03-12T04:38:47.233Z,0.63
2023-03-12T04:41:44.794Z,0.61
2023-03-12T04:44:42.561Z,0.57
2023-03-12T04:47:40.026Z,0.52
2023-03-12T04:50:37.892Z,0.49
2023-03-12T04:53:35.508Z,0.45
2023-03-12T04:56:33.340Z,0.41
2023-03-12T04:59:30.888Z,0.38
2023-03-12T05:02:28.807Z,0.35
2023-03-12T05:05:26.425Z,0.32
2023-03-12T05:08:24.200Z,0.28
2023-03-12T05:11:21.858Z,0.25
2023-03-12T05:14:19.429Z,0.22
2023-03-12T05:17:17.393Z,0.22
2023-03-12T05:20:14.953Z,0.20
2023-03-12T05:23:12.823Z,0.18
2023-03-12T05:26:10.282Z,0.17
2023-03-12T05:29:08.152Z,0.15
2023-03-12T05:32:05.614Z,0.16
2023-03-12T05:35:03.905Z,0.15
2023-03-12T05:38:01.658Z,0.14
2023-03-12T05:40:59.732Z,0.16
2023-03-12T05:43:57.719Z,0.18
2023-03-12T05:46:57.742Z,0.22
2023-03-12T05:49:56.518Z,0.25
2023-03-12T05:52:54.079Z,0.31
2023-03-12T05:55:51.946Z,0.37
2023-03-12T05:58:49.844Z,0.45
2023-03-12T06:01:47.396Z,0.54
2023-03-12T06:04:45.143Z,0.67
2023-03-12T06:07:42.809Z,0.83
2023-03-12T06:10:40.572Z,1.05
2023-03-12T06:13:38.134Z,1.31
2023-03-12T06:16:35.921Z,1.62
2023-03-12T06:19:33.466Z,1.98
2023-03-12T06:22:31.237Z,2.34
2023-03-12T06:25:29.107Z,2.71
2023-03-12T06:28:26.563Z,3.08
2023-03-12T06:31:24.400Z,3.40
2023-03-12T06:34:22.009Z,3.72
2023-03-12T06:37:19.860Z,4.02
2023-03-12T06:40:18.249Z,4.39
2023-03-12T06:43:15.807Z,4.99
2023-03-12T06:46:13.691Z,6.30
2023-03-12T06:49:11.237Z,7.99
2023-03-12T06:52:09.106Z,9.66
2023-03-12T06:55:06.685Z,10.92
2023-03-12T06:58:04.539Z,11.30
2023-03-12T07:01:02.103Z,11.13
2023-03-12T07:03:59.973Z,10.90
2023-03-12T07:06:57.851Z,10.80
2023-03-12T07:09:55.317Z,10.92
2023-03-12T07:12:53.078Z,11.16
2023-03-12T07:15:50.595Z,11.37
2023-03-12T07:18:48.529Z,11.23
2023-03-12T07:21:45.981Z,10.66
2023-03-12T07:24:43.939Z,10.10
2023-03-12T07:27:41.810Z,9.48
2023-03-12T07:30:39.264Z,8.89
2023-03-12T07:33:37.211Z,8.45
2023-03-12T07:36:34.962Z,8.14
2023-03-12T07:39:32.816Z,7.77
2023-03-12T07:42:30.475Z,7.40
2023-03-12T07:45:28.250Z,7.19
2023-03-12T07:48:26.288Z,7.06
2023-03-12T07:51:23.944Z,7.07
2023-03-12T07:54:25.916Z,7.28
2023-03-12T07:57:23.438Z,8.03
2023-03-12T08:00:21.316Z,9.26
2023-03-12T08:03:19.067Z,11.33
2023-03-12T08:06:17.021Z,14.13
2023-03-12T08:09:15.982Z,16.87
2023-03-12T08:12:13.456Z,19.25
2023-03-12T08:15:11.920Z,21.07
2023-03-12T08:18:09.363Z,22.46
2023-03-12T08:21:07.245Z,23.63
2023-03-12T08:24:05.595Z,24.91
2023-03-12T08:27:03.155Z,25.72
2023-03-12T08:30:00.960Z,26.44
2023-03-12T08:32:58.495Z,27.37
2023-03-12T08:35:56.129Z,27.83
2023-03-12T08:38:53.636Z,27.90
2023-03-12T08:41:51.993Z,28.28
2023-03-12T08:44:49.453Z,28.94
2023-03-12T08:47:46.907Z,29.88
2023-03-12T08:50:44.365Z,30.63
2023-03-12T08:53:42.182Z,31.16
2023-03-12T08:56:42.708Z,31.88
2023-03-12T08:59:40.569Z,32.18
2023-03-12T09:02:38.024Z,32.71
2023-03-12T09:05:35.686Z,33.22
2023-03-12T09:08:34.242Z,33.49
2023-03-12T09:11:32.063Z,33.35
2023-03-12T09:17:48.372Z,34.33
2023-03-12T09:20:46.145Z,34.70
2023-03-12T09:23:43.605Z,34.77
2023-03-12T09:26:41.218Z,34.80
2023-03-12T09:29:49.674Z,34.90
2023-03-12T09:32:54.775Z,35.13
2023-03-12T09:35:52.248Z,35.24
2023-03-12T09:38:49.916Z,34.90
2023-03-12T09:41:48.112Z,34.48
2023-03-12T09:44:45.560Z,34.44
2023-03-12T09:47:43.556Z,34.61
2023-03-12T09:50:43.535Z,34.76
2023-03-12T09:53:41.759Z,35.27
2023-03-12T09:56:39.233Z,35.20
2023-03-12T09:59:37.293Z,35.03
2023-03-12T10:02:34.939Z,34.89
2023-03-12T10:05:32.400Z,34.65
2023-03-12T10:08:30.594Z,34.32
2023-03-12T10:11:28.962Z,33.93
2023-03-12T10:14:26.755Z,33.59
2023-03-12T10:17:24.219Z,33.81
2023-03-12T10:20:21.942Z,33.86
2023-03-12T10:23:19.509Z,33.71
2023-03-12T10:26:16.963Z,33.23
2023-03-12T10:29:15.017Z,33.15
2023-03-12T10:32:12.461Z,33.14
2023-03-12T10:35:10.887Z,33.19
2023-03-12T10:38:09.138Z,33.49
2023-03-12T10:41:06.742Z,33.78
2023-03-12T10:44:04.532Z,33.70
2023-03-12T10:47:02.034Z,33.78
2023-03-12T10:49:59.560Z,33.61
2023-03-12T10:52:57.025Z,33.48
2023-03-12T10:55:54.484Z,33.63
2023-03-12T10:58:51.953Z,33.37
2023-03-12T11:01:49.853Z,33.29
2023-03-12T11:04:47.349Z,33.23
2023-03-12T11:07:45.131Z,33.35
2023-03-12T11:10:43.361Z,33.25
2023-03-12T11:13:40.830Z,33.08
2023-03-12T11:16:38.565Z,32.96
2023-03-12T11:19:36.067Z,32.57
2023-03-12T11:22:33.499Z,32.47
2023-03-12T11:25:32.226Z,32.51
2023-03-12T11:28:29.665Z,32.03
2023-03-12T11:31:27.567Z,31.55
2023-03-12T11:34:25.065Z,30.71
2023-03-12T11:37:22.903Z,29.45
2023-03-12T11:40:20.392Z,28.46
2023-03-12T11:43:22.140Z,27.25
2023-03-12T11:46:24.148Z,26.27
2023-03-12T11:49:21.598Z,25.57
2023-03-12T11:52:19.241Z,24.98
2023-03-12T11:55:16.868Z,24.02
2023-03-12T11:58:14.731Z,22.89
2023-03-12T12:01:12.232Z,22.24
2023-03-12T12:04:10.374Z,21.64
2023-03-12T12:07:08.757Z,21.25
2023-03-12T12:10:06.200Z,21.56
2023-03-12T12:13:03.910Z,21.94
2023-03-12T12:16:01.443Z,21.87
2023-03-12T12:18:59.137Z,21.25
2023-03-12T12:21:56.614Z,20.75
2023-03-12T12:24:54.798Z,20.04
2023-03-12T12:27:52.543Z,19.78
2023-03-12T12:30:49.984Z,19.47
2023-03-12T12:33:47.982Z,18.92
2023-03-12T12:36:46.239Z,18.44
2023-03-12T12:39:46.665Z,17.99
2023-03-12T12:42:44.711Z,17.52
2023-03-12T12:45:42.838Z,17.08
2023-03-12T12:48:41.177Z,16.53
2023-03-12T12:51:38.631Z,16.11
2023-03-12T12:54:36.431Z,15.79
2023-03-12T12:57:33.874Z,15.60
2023-03-12T13:00:32.231Z,15.44
2023-03-12T13:03:31.206Z,15.38
2023-03-12T13:06:29.027Z,15.24
2023-03-12T13:09:27.089Z,15.05
2023-03-12T13:12:25.192Z,14.88
2023-03-12T13:15:23.403Z,14.74
2023-03-12T13:18:21.006Z,14.49
2023-03-12T13:21:18.796Z,14.17
2023-03-12T13:24:18.293Z,13.93
2023-03-12T13:27:16.193Z,13.71
2023-03-12T13:30:13.864Z,13.56
2023-03-12T13:33:11.555Z,13.35
2023-03-12T13:36:09.404Z,13.10
2023-03-12T13:39:07.334Z,12.96
2023-03-12T13:42:05.093Z,12.84
2023-03-12T13:45:02.950Z,12.69
2023-03-12T13:48:01.209Z,12.48
2023-03-12T13:50:58.853Z,12.31
2023-03-12T13:53:56.572Z,12.23
2023-03-12T13:56:54.024Z,12.19
2023-03-12T13:59:51.701Z,12.13
2023-03-12T14:02:49.488Z,12.07
2023-03-12T14:05:47.480Z,11.97
2023-03-12T14:08:46.423Z,11.89
2023-03-12T14:11:43.966Z,11.93
2023-03-12T14:14:43.475Z,11.91
2023-03-12T14:17:40.909Z,11.88
2023-03-12T14:20:38.630Z,11.81
2023-03-12T14:23:36.111Z,11.74
2023-03-12T14:26:33.962Z,11.72
2023-03-12T14:29:32.648Z,11.67
2023-03-12T14:32:30.146Z,11.64
2023-03-12T14:35:29.549Z,11.58
2023-03-12T14:38:27.159Z,11.52
2023-03-12T14:41:24.833Z,11.44
2023-03-12T14:44:22.341Z,11.38
2023-03-12T14:47:20.649Z,11.34
2023-03-12T14:50:18.271Z,11.33
2023-03-12T14:53:16.148Z,11.31
2023-03-12T14:56:14.305Z,11.28
2023-03-12T14:59:12.582Z,11.24
2023-03-12T15:02:12.537Z,11.17
2023-03-12T15:05:10.361Z,11.15
2023-03-12T15:08:09.155Z,11.14
2023-03-12T15:11:07.929Z,11.11
2023-03-12T15:14:05.460Z,11.08
2023-03-12T15:17:04.129Z,11.04
2023-03-12T15:20:03.696Z,11.01
2023-03-12T15:23:04.303Z,10.96
2023-03-12T15:26:02.378Z,10.91
2023-03-12T15:29:00.027Z,10.84
2023-03-12T15:31:58.828Z,10.81
2023-03-12T15:34:59.285Z,10.79
2023-03-12T15:37:58.597Z,10.76
2023-03-12T15:40:56.208Z,10.71
2023-03-12T15:43:55.277Z,10.61
2023-03-12T15:46:53.861Z,10.54
2023-03-12T15:49:53.041Z,10.49
2023-03-12T15:52:53.464Z,10.44
2023-03-12T15:55:51.202Z,10.40
2023-03-12T15:58:49.514Z,10.37
2023-03-12T16:01:47.791Z,10.34
2023-03-12T16:04:46.632Z,10.32
2023-03-12T16:07:45.392Z,10.30
2023-03-12T16:10:43.585Z,10.27
2023-03-12T16:13:43.157Z,10.25
2023-03-12T16:16:40.926Z,10.24
2023-03-12T16:19:39.557Z,10.20
2023-03-12T16:22:37.962Z,10.19
2023-03-12T16:25:36.435Z,10.15
2023-03-12T16:28:34.978Z,10.11
2023-03-12T16:31:33.514Z,10.08
2023-03-12T16:34:35.214Z,10.06
2023-03-12T16:37:33.835Z,10.02
2023-03-12T16:40:33.848Z,9.98
2023-03-12T16:43:33.352Z,9.94
2023-03-12T16:46:31.525Z,9.88
2023-03-12T16:49:31.059Z,9.85
2023-03-12T16:52:29.427Z,9.83
2023-03-12T16:55:28.715Z,9.78
2023-03-12T16:58:26.489Z,9.74
2023-03-12T17:01:25.661Z,9.70
2023-03-12T17:04:23.663Z,9.68
2023-03-12T17:07:22.129Z,9.63
2023-03-12T17:10:20.697Z,9.59
2023-03-12T17:13:20.100Z,9.54
2023-03-12T17:16:18.329Z,9.49
2023-03-12T17:19:17.345Z,9.41
2023-03-12T17:22:16.478Z,9.36
2023-03-12T17:25:15.240Z,9.34
2023-03-12T17:28:14.651Z,9.31
2023-03-12T17:31:13.041Z,9.28
2023-03-12T17:34:12.054Z,9.24
2023-03-12T17:37:12.050Z,9.20
2023-03-12T17:40:13.217Z,9.16
2023-03-12T17:43:12.533Z,9.14
2023-03-12T17:46:11.253Z,9.12
2023-03-12T17:49:12.666Z,9.10
2023-03-12T17:52:11.361Z,9.10
2023-03-12T17:55:11.757Z,9.09
2023-03-12T17:58:10.228Z,9.08
2023-03-12T18:01:09.067Z,9.09
2023-03-12T18:04:12.250Z,9.07
2023-03-12T18:07:11.043Z,9.06
2023-03-12T18:10:14.654Z,9.03
2023-03-12T18:13:13.654Z,9.02
2023-03-12T18:16:13.398Z,8.99
2023-03-12T18:19:12.052Z,8.98
2023-03-12T18:22:13.606Z,8.99
2023-03-12T18:25:12.300Z,8.99
2023-03-12T18:28:12.416Z,9.00
2023-03-12T18:31:11.324Z,9.01
2023-03-12T18:34:10.708Z,9.01
2023-03-12T18:37:09.447Z,8.99
2023-03-12T18:40:11.789Z,8.96
2023-03-12T18:43:11.316Z,8.93
2023-03-12T18:46:11.180Z,8.91
2023-03-12T18:49:11.413Z,8.88
2023-03-12T18:52:11.936Z,8.88
2023-03-12T18:55:15.852Z,8.84
2023-03-12T18:58:14.589Z,8.82
2023-03-12T19:01:14.662Z,8.80
2023-03-12T19:04:14.744Z,8.79
2023-03-12T19:07:16.329Z,8.79
2023-03-12T19:10:16.742Z,8.78
2023-03-12T19:13:19.232Z,8.78
2023-03-12T19:16:23.438Z,8.75
2023-03-12T19:19:24.031Z,8.74
2023-03-12T19:22:27.050Z,8.73
2023-03-12T19:25:28.031Z,8.73
2023-03-12T19:28:27.820Z,8.72
2023-03-12T19:31:28.753Z,8.70
2023-03-12T19:34:27.805Z,8.69
2023-03-12T19:37:30.701Z,8.67
2023-03-12T19:40:29.786Z,8.64
2023-03-12T19:43:28.826Z,8.61
2023-03-12T19:46:28.442Z,8.62
2023-03-12T19:49:28.282Z,8.60
2023-03-12T19:52:29.672Z,8.58
2023-03-12T19:55:28.359Z,8.57
2023-03-12T19:58:28.725Z,8.55
2023-03-12T20:01:31.165Z,8.52
2023-03-12T20:04:32.333Z,8.50
2023-03-12T20:07:32.171Z,8.49
2023-03-12T20:10:30.863Z,8.49
2023-03-12T20:13:30.421Z,8.47
2023-03-12T20:16:30.045Z,8.44
2023-03-12T20:19:30.249Z,8.44
2023-03-12T20:22:33.957Z,8.42
2023-03-12T20:25:33.383Z,8.41
2023-03-12T20:28:32.156Z,8.37
2023-03-12T20:31:31.483Z,8.32
2023-03-12T20:34:30.659Z,8.29
2023-03-12T20:37:29.368Z,8.22
2023-03-12T20:40:31.408Z,8.12
2023-03-12T20:43:30.001Z,8.03
2023-03-12T20:46:29.195Z,7.94
2023-03-12T20:49:28.280Z,7.82
2023-03-12T20:52:35.700Z,7.69
2023-03-12T20:55:34.393Z,7.56
2023-03-12T20:58:33.560Z,7.46
2023-03-12T21:01:33.473Z,7.37
2023-03-12T21:04:37.333Z,7.28
2023-03-12T21:07:35.700Z,7.20
2023-03-12T21:10:34.103Z,7.11
2023-03-12T21:13:33.084Z,7.00
2023-03-12T21:16:32.008Z,6.91
2023-03-12T21:19:30.101Z,6.85
2023-03-12T21:22:28.063Z,6.80
2023-03-12T21:25:27.122Z,6.73
2023-03-12T21:28:26.198Z,6.70
2023-03-12T21:31:23.799Z,6.68
2023-03-12T21:34:21.887Z,6.66
2023-03-12T21:37:20.444Z,6.62
2023-03-12T21:40:18.424Z,6.58
2023-03-12T21:43:15.883Z,6.55
2023-03-12T21:46:13.840Z,6.53
2023-03-12T21:49:11.458Z,6.51
2023-03-12T21:52:09.492Z,6.49
2023-03-12T21:55:06.943Z,6.45
2023-03-12T21:58:04.753Z,6.43
2023-03-12T22:01:02.235Z,6.44
2023-03-12T22:04:01.586Z,6.42
2023-03-12T22:06:59.557Z,6.43
2023-03-12T22:09:56.986Z,6.44
2023-03-12T22:12:55.074Z,6.44
2023-03-12T22:15:52.552Z,6.46
2023-03-12T22:18:50.511Z,6.48
2023-03-12T22:21:47.965Z,6.50
2023-03-12T22:24:45.432Z,6.52
2023-03-12T22:27:42.860Z,6.54
2023-03-12T22:30:40.778Z,6.56
2023-03-12T22:33:38.266Z,6.57
2023-03-12T22:36:36.210Z,6.58
2023-03-12T22:39:33.652Z,6.59
2023-03-12T22:42:31.620Z,6.57
2023-03-12T22:45:29.104Z,6.56
2023-03-12T22:48:27.325Z,6.53
2023-03-12T22:51:24.799Z,6.53
2023-03-12T22:54:22.701Z,6.52
2023-03-12T22:57:20.209Z,6.51
2023-03-12T23:00:21.475Z,6.51
2023-03-12T23:03:18.910Z,6.51
2023-03-12T23:06:16.737Z,6.53
2023-03-12T23:09:14.264Z,6.55
2023-03-12T23:12:12.086Z,6.59
2023-03-12T23:15:09.553Z,6.65
2023-03-12T23:18:07.602Z,6.68
2023-03-12T23:21:05.475Z,6.72
2023-03-12T23:24:02.932Z,6.78
2023-03-12T23:27:00.413Z,6.84
2023-03-12T23:29:57.887Z,6.91
2023-03-12T23:32:56.009Z,6.97
2023-03-12T23:35:53.634Z,7.00
2023-03-12T23:38:51.560Z,7.04
2023-03-12T23:41:49.540Z,7.06
2023-03-12T23:44:47.287Z,7.09
2023-03-12T23:47:45.133Z,7.11
2023-03-12T23:50:42.591Z,7.13
2023-03-12T23:53:40.405Z,7.17
2023-03-12T23:56:38.294Z,7.18
2023-03-12T23:59:35.730Z,7.20
